Time;durP1;ratioP1;P1;durP2;ratioP2;P2;SDS_P1;SDS_P2;PMS_P1;PMS_P2;Temp;Humidity;BMP_temperature;BMP_pressure;BME280_temperature;BME280_humidity;BME280_pressure;Samples;Min_cycle;Max_cycle;Signal;HPM_P1;HPM_P2
2021/07/10 00:04:08;;;;;;;22.02;13.60;;;;;;;15.18;82.40;101882.53;10545500;28;20044;-60
2021/07/10 00:09:10;;;;;;;20.77;13.70;;;;;;;15.02;82.81;101893.13;10544614;28;20040;-60
2021/07/10 00:14:13;;;;;;;17.40;14.20;;;;;;;15.08;83.10;101872.63;10544439;28;20496;-60
2021/07/10 00:19:15;;;;;;;21.95;14.18;;;;;;;15.11;83.15;101875.91;10544236;28;20044;-60
2021/07/10 00:24:18;;;;;;;23.33;14.65;;;;;;;15.12;82.69;101864.44;10543946;28;20052;-59
2021/07/10 00:29:20;;;;;;;21.23;14.75;;;;;;;15.14;82.37;101857.28;10544401;28;20052;-59
2021/07/10 00:34:22;;;;;;;24.23;16.23;;;;;;;15.12;83.22;101848.63;10543896;28;20052;-58
2021/07/10 00:39:25;;;;;;;25.42;17.73;;;;;;;15.11;83.93;101849.53;10543162;28;20047;-60
2021/07/10 00:44:27;;;;;;;24.05;16.33;;;;;;;15.11;83.81;101849.53;10543471;28;20052;-60
2021/07/10 00:49:29;;;;;;;16.38;13.93;;;;;;;15.38;82.13;101835.63;10543080;28;20055;-60
2021/07/10 00:54:32;;;;;;;20.50;14.45;;;;;;;15.15;83.17;101824.69;10543055;28;20055;-59
2021/07/10 00:59:34;;;;;;;25.02;16.08;;;;;;;15.22;82.99;101828.66;10542758;28;20044;-60
2021/07/10 01:04:37;;;;;;;24.92;16.73;;;;;;;15.47;81.46;101832.44;10541360;28;20075;-59
2021/07/10 01:09:40;;;;;;;23.75;16.45;;;;;;;15.04;83.89;101829.75;10542372;28;20056;-60
2021/07/10 01:14:43;;;;;;;21.48;15.10;;;;;;;15.17;82.87;101824.59;10542459;28;20059;-58
2021/07/10 01:19:58;;;;;;;21.90;15.85;;;;;;;15.15;83.12;101818.56;10542131;28;20066;-59
2021/07/10 01:25:00;;;;;;;23.58;16.13;;;;;;;15.01;83.76;101811.47;10542203;28;20060;-59
2021/07/10 01:30:07;;;;;;;29.67;17.40;;;;;;;14.97;84.31;101813.44;10541841;28;20051;-60
2021/07/10 01:35:10;;;;;;;23.45;16.35;;;;;;;15.01;83.13;101814.97;10541599;28;20082;-60
2021/07/10 01:40:17;;;;;;;23.95;16.30;;;;;;;14.99;83.54;101805.44;10541456;28;20040;-59
2021/07/10 01:45:20;;;;;;;25.70;18.30;;;;;;;14.91;83.97;101803.28;10541193;28;20055;-60
2021/07/10 01:50:23;;;;;;;31.65;19.42;;;;;;;14.85;84.40;101807.13;10539914;28;20399;-60
2021/07/10 01:55:26;;;;;;;31.33;19.45;;;;;;;14.89;84.12;101804.31;10540674;28;20051;-60
2021/07/10 02:00:35;;;;;;;28.13;18.90;;;;;;;14.87;84.48;101807.03;10541325;28;20044;-60
2021/07/10 02:05:38;;;;;;;28.55;18.92;;;;;;;14.73;84.48;101796.47;10540532;28;20051;-59
2021/07/10 02:10:40;;;;;;;26.48;17.95;;;;;;;14.66;84.36;101801.25;10539247;28;20048;-60
2021/07/10 02:15:43;;;;;;;27.80;18.23;;;;;;;15.08;82.54;101791.72;10539940;28;20063;-59
2021/07/10 02:20:45;;;;;;;28.65;18.20;;;;;;;14.79;83.64;101793.47;10541248;28;20044;-60
2021/07/10 02:25:47;;;;;;;30.95;19.67;;;;;;;14.64;84.17;101779.38;10540108;28;20071;-59
2021/07/10 02:30:50;;;;;;;28.73;20.33;;;;;;;14.40;84.90;101769.31;10539700;28;20040;-59
2021/07/10 02:35:52;;;;;;;28.85;18.00;;;;;;;14.44;84.38;101773.50;10539395;28;20059;-60
2021/07/10 02:40:54;;;;;;;39.58;21.25;;;;;;;14.59;83.81;101763.00;10539528;28;20502;-60
2021/07/10 02:45:57;;;;;;;31.05;20.40;;;;;;;14.47;84.61;101760.16;10539256;28;20048;-59
2021/07/10 02:50:59;;;;;;;33.20;20.48;;;;;;;14.46;84.20;101762.88;10539866;28;20050;-59
2021/07/10 02:56:02;;;;;;;36.33;20.88;;;;;;;14.51;83.87;101760.81;10539785;28;20047;-59
2021/07/10 03:01:04;;;;;;;38.70;21.50;;;;;;;14.43;84.52;101757.78;10539434;28;20048;-59
2021/07/10 03:06:07;;;;;;;36.80;21.00;;;;;;;14.31;84.60;101757.53;10546852;28;20098;-59
2021/07/10 03:11:11;;;;;;;33.90;21.20;;;;;;;14.41;84.34;101746.47;10547728;28;20047;-60
2021/07/10 03:16:13;;;;;;;35.10;21.88;;;;;;;14.30;84.63;101742.66;10547063;28;20047;-59
2021/07/10 03:21:15;;;;;;;34.15;18.40;;;;;;;14.25;84.01;101747.34;10546927;28;20107;-59
2021/07/10 03:26:18;;;;;;;34.53;20.55;;;;;;;14.12;84.88;101738.44;10546908;28;20117;-59
2021/07/10 03:31:20;;;;;;;33.28;20.10;;;;;;;14.38;84.21;101733.47;10546330;28;20415;-59
2021/07/10 03:36:26;;;;;;;37.00;20.02;;;;;;;14.39;83.72;101733.38;10546231;28;20056;-59
2021/07/10 03:41:28;;;;;;;39.88;22.33;;;;;;;14.11;84.48;101732.34;10546375;28;20463;-58
2021/07/10 03:46:30;;;;;;;39.00;23.63;;;;;;;14.28;85.15;101728.72;10546178;28;20487;-59
2021/07/10 03:51:33;;;;;;;38.17;22.75;;;;;;;14.27;84.69;101728.81;10545640;28;20392;-60
2021/07/10 03:56:35;;;;;;;38.20;22.88;;;;;;;14.36;84.17;101733.56;10545419;28;20044;-59
2021/07/10 04:01:41;;;;;;;30.42;20.15;;;;;;;14.22;84.88;101728.25;10545950;28;20044;-59
2021/07/10 04:06:44;;;;;;;28.33;19.73;;;;;;;14.31;84.49;101730.34;10544827;28;20400;-59
2021/07/10 04:11:46;;;;;;;38.47;23.02;;;;;;;14.32;84.83;101718.84;10545139;28;20408;-60
2021/07/10 04:16:48;;;;;;;38.38;23.52;;;;;;;14.37;84.81;101713.31;10543415;28;20058;-59
2021/07/10 04:21:51;;;;;;;34.85;23.50;;;;;;;14.55;84.98;101716.66;10544600;28;20044;-59
2021/07/10 04:26:53;;;;;;;44.28;26.40;;;;;;;14.61;84.47;101721.63;10544578;28;20059;-59
2021/07/10 04:31:55;;;;;;;46.00;27.13;;;;;;;14.66;85.12;101712.50;10544020;28;20047;-59
2021/07/10 04:36:58;;;;;;;40.47;22.67;;;;;;;14.85;84.46;101708.75;10543602;28;20084;-59
2021/07/10 04:42:01;;;;;;;41.10;24.52;;;;;;;14.95;84.15;101707.22;10543805;28;20392;-59
2021/07/10 04:47:04;;;;;;;38.42;22.35;;;;;;;14.99;84.49;101705.25;10543519;28;20399;-59
2021/07/10 04:52:07;;;;;;;42.53;24.38;;;;;;;15.16;84.53;101710.34;10543482;28;20101;-59
2021/07/10 04:57:09;;;;;;;38.15;23.05;;;;;;;15.44;84.03;101721.78;10542765;28;20054;-59
2021/07/10 05:02:11;;;;;;;35.83;22.38;;;;;;;15.32;83.74;101712.00;10543016;28;20044;-59
2021/07/10 05:07:14;;;;;;;35.05;22.13;;;;;;;15.47;84.64;101710.19;10542324;28;20056;-60
2021/07/10 05:12:20;;;;;;;36.03;23.08;;;;;;;15.63;84.21;101712.69;10542848;28;20048;-60
2021/07/10 05:17:23;;;;;;;33.72;22.60;;;;;;;15.79;83.77;101713.44;10540972;28;20079;-60
2021/07/10 05:22:25;;;;;;;29.15;20.30;;;;;;;15.89;82.52;101706.59;10542115;28;20060;-59
2021/07/10 05:27:27;;;;;;;29.05;20.38;;;;;;;15.86;83.37;101700.69;10541841;28;20055;-60
2021/07/10 05:32:30;;;;;;;29.45;20.25;;;;;;;16.19;82.14;101699.38;10541663;28;20048;-60
2021/07/10 05:37:32;;;;;;;32.40;22.48;;;;;;;16.48;82.74;101698.28;10541729;28;20048;-59
2021/07/10 05:42:34;;;;;;;28.42;22.63;;;;;;;16.60;82.04;101693.09;10541092;28;20048;-61
2021/07/10 05:47:37;;;;;;;35.00;23.05;;;;;;;16.67;82.79;101700.50;10540623;28;20052;-60
2021/07/10 05:52:40;;;;;;;34.40;26.27;;;;;;;17.14;79.15;101697.31;10540965;28;20055;-61
2021/07/10 05:57:43;;;;;;;39.10;28.35;;;;;;;17.50;81.06;101698.28;10540882;28;20051;-61
2021/07/10 06:02:45;;;;;;;38.38;24.52;;;;;;;17.74;81.31;101695.66;10541081;28;20123;-61
2021/07/10 06:07:47;;;;;;;38.95;25.13;;;;;;;18.32;79.96;101701.91;10540410;28;20051;-59
2021/07/10 06:12:50;;;;;;;42.88;29.67;;;;;;;18.45;79.38;101703.66;10540825;28;20052;-60
2021/07/10 06:17:52;;;;;;;45.15;33.53;;;;;;;18.63;75.39;101696.94;10539855;28;20048;-59
2021/07/10 06:22:55;;;;;;;45.92;34.92;;;;;;;18.44;77.06;101694.84;10539865;28;20054;-60
2021/07/10 06:27:58;;;;;;;47.05;35.00;;;;;;;18.30;74.55;101706.50;10539702;28;20044;-60
2021/07/10 06:33:00;;;;;;;37.42;29.38;;;;;;;18.67;74.40;101703.66;10539942;28;20504;-60
2021/07/10 06:38:03;;;;;;;45.25;32.67;;;;;;;18.26;75.43;101701.56;10544069;28;20487;-61
2021/07/10 06:43:05;;;;;;;43.55;30.75;;;;;;;18.49;73.92;101697.13;10553631;28;20052;-59
2021/07/10 06:48:08;;;;;;;43.08;30.08;;;;;;;18.38;74.75;101692.66;10553781;28;20545;-60
2021/07/10 06:53:10;;;;;;;37.88;25.73;;;;;;;18.93;73.56;101696.38;10553416;28;20048;-60
2021/07/10 06:58:12;;;;;;;35.35;22.77;;;;;;;18.84;72.09;101705.03;10553650;28;20050;-60
2021/07/10 07:03:15;;;;;;;39.22;26.73;;;;;;;18.79;73.56;101704.53;10553405;28;20051;-61
2021/07/10 07:08:17;;;;;;;32.20;22.58;;;;;;;18.56;72.75;101703.69;10553043;28;20047;-60
2021/07/10 07:13:19;;;;;;;21.17;15.18;;;;;;;19.12;69.28;101701.06;10552727;28;20051;-61
2021/07/10 07:18:22;;;;;;;18.67;13.50;;;;;;;19.39;66.69;101697.16;10552974;28;20468;-60
2021/07/10 07:23:38;;;;;;;14.20;10.50;;;;;;;19.94;65.48;101691.84;10553528;28;20141;-60
2021/07/10 07:28:42;;;;;;;12.10;10.05;;;;;;;19.90;64.76;101695.72;10552716;28;20052;-61
2021/07/10 07:33:45;;;;;;;13.15;10.90;;;;;;;20.12;65.46;101692.09;10552919;28;20059;-61
2021/07/10 07:38:47;;;;;;;11.88;9.43;;;;;;;20.00;63.71;101693.13;10551338;28;20508;-60
2021/07/10 07:43:49;;;;;;;12.38;9.63;;;;;;;20.34;62.13;101684.97;10552129;28;20044;-61
2021/07/10 07:48:52;;;;;;;11.90;8.57;;;;;;;20.27;64.49;101692.63;10548908;28;20055;-61
2021/07/10 07:53:54;;;;;;;9.45;7.97;;;;;;;19.77;62.08;101693.25;10545217;28;20055;-60
2021/07/10 07:58:57;;;;;;;15.30;12.70;;;;;;;19.94;62.60;101693.63;10545216;28;20395;-61
2021/07/10 08:03:59;;;;;;;15.70;10.93;;;;;;;20.33;60.40;101692.13;10545225;28;20052;-61
2021/07/10 08:09:02;;;;;;;14.55;10.80;;;;;;;20.49;61.18;101681.00;10544612;28;20506;-60
2021/07/10 08:14:05;;;;;;;14.10;10.95;;;;;;;20.64;59.86;101670.06;10544704;28;20070;-60
2021/07/10 08:19:07;;;;;;;12.57;8.75;;;;;;;20.88;59.84;101667.06;10544325;28;20503;-61
2021/07/10 08:24:10;;;;;;;15.48;9.27;;;;;;;20.97;59.60;101667.13;10543924;28;20052;-60
2021/07/10 08:29:12;;;;;;;11.13;8.85;;;;;;;21.09;60.72;101669.69;10543959;28;20119;-61
2021/07/10 08:34:14;;;;;;;13.05;10.05;;;;;;;21.65;57.83;101669.13;10543643;28;20419;-60
2021/07/10 08:39:17;;;;;;;11.13;8.27;;;;;;;21.73;55.44;101662.25;10543693;28;20427;-60
2021/07/10 08:44:19;;;;;;;8.18;5.78;;;;;;;21.45;53.78;101652.25;10543453;28;20044;-59
2021/07/10 08:49:22;;;;;;;7.53;6.40;;;;;;;21.54;53.38;101650.59;10525430;28;20044;-61
2021/07/10 08:54:24;;;;;;;10.45;7.53;;;;;;;21.72;54.32;101650.75;10542988;28;20052;-61
2021/07/10 08:59:26;;;;;;;12.82;7.38;;;;;;;21.95;54.17;101645.09;10542220;28;20488;-60
2021/07/10 09:04:29;;;;;;;12.63;7.30;;;;;;;21.91;54.78;101641.88;10542643;28;20044;-61
2021/07/10 09:09:45;;;;;;;6.10;5.47;;;;;;;21.49;54.53;101647.50;10542677;28;20044;-60
2021/07/10 09:14:47;;;;;;;12.30;9.32;;;;;;;22.81;55.02;101650.34;10542455;28;20052;-61
2021/07/10 09:19:52;;;;;;;17.00;7.53;;;;;;;22.35;54.11;101639.59;10541944;28;20044;-60
2021/07/10 09:24:56;;;;;;;8.50;6.60;;;;;;;22.58;54.35;101639.25;10541882;28;20048;-61
2021/07/10 09:29:58;;;;;;;11.55;8.68;;;;;;;21.87;55.36;101640.47;10540347;28;20401;-61
2021/07/10 09:35:03;;;;;;;10.50;7.07;;;;;;;23.29;51.67;101629.75;10541459;28;20419;-60
2021/07/10 09:40:11;;;;;;;12.82;7.80;;;;;;;22.55;54.29;101635.03;10540164;28;20044;-60
2021/07/10 09:45:17;;;;;;;8.00;7.20;;;;;;;22.81;53.27;101635.22;10541153;28;20047;-60
2021/07/10 09:50:24;;;;;;;8.90;5.95;;;;;;;22.45;53.21;101632.38;10540947;28;20403;-60
2021/07/10 09:55:28;;;;;;;9.75;7.38;;;;;;;22.17;53.99;101628.78;10542082;28;20044;-61
2021/07/10 10:00:31;;;;;;;10.48;7.35;;;;;;;21.82;53.31;101622.25;10540894;28;20044;-61
2021/07/10 10:05:40;;;;;;;9.38;7.70;;;;;;;22.14;53.80;101618.44;10540458;28;20048;-60
2021/07/10 10:10:45;;;;;;;11.15;8.65;;;;;;;23.04;53.29;101620.59;10540323;28;20047;-61
2021/07/10 10:15:50;;;;;;;12.02;9.65;;;;;;;22.77;51.41;101623.13;10538571;28;20051;-60
2021/07/10 10:20:54;;;;;;;12.57;8.95;;;;;;;22.02;53.38;101624.88;10540088;28;20055;-61
2021/07/10 10:25:56;;;;;;;12.15;7.40;;;;;;;22.93;54.35;101610.94;10540035;28;20058;-60
2021/07/10 10:30:59;;;;;;;10.98;7.15;;;;;;;24.25;49.91;101616.50;10522281;28;20096;-60
2021/07/10 10:36:01;;;;;;;11.38;7.07;;;;;;;25.54;50.04;101607.44;10538498;28;20047;-61
2021/07/10 10:41:04;;;;;;;12.65;9.10;;;;;;;25.20;48.83;101600.34;10540225;28;20050;-61
2021/07/10 10:46:19;;;;;;;13.98;10.95;;;;;;;24.04;49.97;101594.63;10537981;28;20048;-61
2021/07/10 10:51:25;;;;;;;12.65;9.13;;;;;;;25.82;49.55;101588.31;10539441;28;20052;-61
2021/07/10 10:56:37;;;;;;;12.20;8.88;;;;;;;24.88;49.37;101582.38;10539162;28;20052;-60
2021/07/10 11:01:39;;;;;;;11.25;7.82;;;;;;;23.99;52.66;101576.41;10539217;28;20051;-60
2021/07/10 11:06:42;;;;;;;9.40;7.45;;;;;;;24.53;50.07;101568.16;10537620;28;20056;-60
2021/07/10 11:11:44;;;;;;;10.20;7.93;;;;;;;24.28;51.26;101569.88;10539226;28;20048;-60
2021/07/10 11:17:07;;;;;;;10.82;7.10;;;;;;;25.56;48.03;101565.22;10539740;28;20052;-60
2021/07/10 11:22:10;;;;;;;7.13;6.22;;;;;;;25.37;50.99;101554.84;10538878;28;20514;-60
2021/07/10 11:27:12;;;;;;;7.80;5.88;;;;;;;25.45;50.85;101551.31;10547897;28;20400;-61
2021/07/10 11:32:19;;;;;;;8.50;7.70;;;;;;;24.77;48.83;101543.31;10547211;28;20055;-60
2021/07/10 11:37:26;;;;;;;9.80;6.60;;;;;;;27.82;43.17;101535.03;10546243;28;20385;-60
2021/07/10 11:42:31;;;;;;;6.35;5.68;;;;;;;26.05;49.56;101531.31;10546631;28;20135;-60
2021/07/10 11:47:35;;;;;;;7.55;6.18;;;;;;;25.68;47.41;101532.69;10546174;28;20055;-60
2021/07/10 11:52:38;;;;;;;8.18;6.70;;;;;;;25.33;47.61;101524.81;10546717;28;20052;-61
2021/07/10 11:57:41;;;;;;;11.05;6.65;;;;;;;25.81;48.19;101522.28;10545658;28;20048;-61
2021/07/10 12:02:43;;;;;;;7.88;6.63;;;;;;;25.94;50.77;101519.03;10545714;28;20050;-60
2021/07/10 12:07:50;;;;;;;6.40;5.85;;;;;;;26.64;47.81;101510.25;10545123;28;20044;-60
2021/07/10 12:13:00;;;;;;;8.27;6.25;;;;;;;25.66;48.24;101507.91;10545593;28;20040;-60
2021/07/10 12:18:04;;;;;;;7.90;6.50;;;;;;;26.73;44.55;101505.69;10544795;28;20048;-60
2021/07/10 12:23:06;;;;;;;9.00;6.18;;;;;;;25.54;46.76;101505.56;10544693;28;20059;-61
2021/07/10 12:28:09;;;;;;;8.02;6.22;;;;;;;26.41;45.12;101495.91;10544390;28;20044;-60
2021/07/10 12:33:38;;;;;;;8.60;6.38;;;;;;;26.45;48.27;101499.94;10544337;28;20048;-59
2021/07/10 12:38:55;;;;;;;8.90;5.90;;;;;;;26.58;46.85;101493.97;10543045;28;20395;-61
2021/07/10 12:44:21;;;;;;;5.63;3.80;;;;;;;26.69;42.99;101490.94;10543746;28;20491;-61
2021/07/10 12:49:37;;;;;;;6.32;4.72;;;;;;;27.69;46.08;101487.28;10543453;28;20068;-60
2021/07/10 12:55:10;;;;;;;3.97;3.60;;;;;;;27.02;44.85;101479.97;10544115;28;20048;-61
2021/07/10 13:00:21;;;;;;;6.03;4.63;;;;;;;26.75;43.72;101475.94;10543245;28;20051;-61
2021/07/10 13:05:30;;;;;;;7.82;4.88;;;;;;;25.82;42.79;101467.63;10543307;28;20048;-61
2021/07/10 13:10:32;;;;;;;6.15;4.40;;;;;;;24.80;42.32;101472.56;10542828;28;20044;-61
2021/07/10 13:15:45;;;;;;;7.28;5.65;;;;;;;25.59;43.59;101459.47;10542327;28;20055;-62
2021/07/10 13:20:57;;;;;;;4.70;3.80;;;;;;;26.35;47.09;101461.75;10542493;28;20074;-61
2021/07/10 13:26:01;;;;;;;5.00;3.92;;;;;;;26.57;42.05;101460.94;10542134;28;20056;-62
2021/07/10 13:31:18;;;;;;;6.78;5.43;;;;;;;24.66;47.19;101465.97;10541754;28;20408;-62
2021/07/10 13:36:31;;;;;;;5.35;3.95;;;;;;;24.73;49.76;101455.44;10541446;28;20441;-62
2021/07/10 13:41:37;;;;;;;5.95;3.72;;;;;;;24.95;46.89;101454.81;10540462;28;20040;-63
2021/07/10 13:46:45;;;;;;;5.70;3.25;;;;;;;24.99;51.52;101455.31;10541402;28;20048;-61
2021/07/10 13:51:59;;;;;;;6.28;3.15;;;;;;;24.79;51.66;101452.94;10540557;28;20090;-62
2021/07/10 13:57:19;;;;;;;9.65;4.85;;;;;;;24.87;47.13;101445.94;10541143;28;20411;-62
2021/07/10 14:02:23;;;;;;;3.90;3.60;;;;;;;24.72;49.77;101435.88;10540842;28;20459;-62
2021/07/10 14:07:26;;;;;;;4.38;3.45;;;;;;;24.55;49.38;101434.19;10538700;28;20048;-61
2021/07/10 14:12:29;;;;;;;4.57;3.53;;;;;;;24.51;48.99;101438.16;10540402;28;20052;-62
2021/07/10 14:17:31;;;;;;;3.45;3.15;;;;;;;24.62;50.06;101432.53;10539904;28;20052;-62
2021/07/10 14:22:34;;;;;;;5.68;3.75;;;;;;;24.51;50.54;101424.75;10539888;28;20203;-62
2021/07/10 14:27:37;;;;;;;6.28;3.70;;;;;;;24.37;53.29;101424.41;10539194;28;20457;-63
2021/07/10 14:32:40;;;;;;;5.80;4.22;;;;;;;23.66;50.74;101423.75;10539226;28;20063;-61
2021/07/10 14:37:43;;;;;;;6.88;4.30;;;;;;;23.89;52.01;101423.25;10538886;28;20487;-61
2021/07/10 14:42:46;;;;;;;5.78;5.07;;;;;;;23.44;53.27;101427.81;10537742;28;20487;-62
2021/07/10 14:47:49;;;;;;;4.72;3.88;;;;;;;23.64;56.59;101416.91;10539187;28;20044;-61
2021/07/10 14:52:53;;;;;;;8.00;5.03;;;;;;;23.74;54.04;101421.13;10537546;28;20052;-61
2021/07/10 14:57:55;;;;;;;6.13;3.95;;;;;;;24.25;55.55;101417.69;10539703;28;20044;-61
2021/07/10 15:02:58;;;;;;;6.10;4.82;;;;;;;23.45;50.53;101412.63;10547308;28;20048;-61
2021/07/10 15:08:01;;;;;;;5.13;4.20;;;;;;;23.71;55.36;101397.41;10546559;28;20044;-61
2021/07/10 15:13:03;;;;;;;9.63;4.07;;;;;;;23.87;55.14;101385.97;10546584;28;20391;-62
2021/07/10 15:18:07;;;;;;;5.30;4.18;;;;;;;23.57;55.81;101381.97;10547012;28;20385;-61
2021/07/10 15:23:09;;;;;;;4.88;4.07;;;;;;;23.52;55.88;101376.28;10546083;28;20059;-61
2021/07/10 15:28:11;;;;;;;7.00;3.90;;;;;;;23.19;56.74;101370.72;10545813;28;20044;-62
2021/07/10 15:33:14;;;;;;;5.30;4.10;;;;;;;23.10;55.83;101372.50;10546302;28;20051;-61
2021/07/10 15:38:16;;;;;;;4.93;4.43;;;;;;;23.13;55.53;101374.88;10545783;28;20051;-61
2021/07/10 15:43:19;;;;;;;4.57;3.95;;;;;;;22.97;57.34;101372.03;10545581;28;20054;-61
2021/07/10 15:48:22;;;;;;;4.95;3.50;;;;;;;23.21;55.61;101367.91;10545416;28;20051;-62
2021/07/10 15:53:24;;;;;;;3.67;3.38;;;;;;;22.94;57.32;101364.34;10545498;28;20048;-61
2021/07/10 15:58:26;;;;;;;7.43;4.78;;;;;;;22.99;55.95;101368.19;10545183;28;20048;-62
2021/07/10 16:03:29;;;;;;;6.55;4.85;;;;;;;22.83;53.97;101373.44;10544942;28;20051;-61
2021/07/10 16:08:32;;;;;;;6.43;5.82;;;;;;;22.67;55.10;101368.78;10545486;28;20048;-61
2021/07/10 16:13:34;;;;;;;5.13;4.47;;;;;;;22.78;57.38;101354.38;10542463;28;20373;-61
2021/07/10 16:18:37;;;;;;;5.40;4.90;;;;;;;23.00;56.51;101355.72;10543878;28;20056;-61
2021/07/10 16:23:39;;;;;;;4.75;4.20;;;;;;;23.05;57.98;101363.22;10544412;28;20051;-61
2021/07/10 16:28:41;;;;;;;3.85;3.55;;;;;;;23.06;57.10;101354.25;10543401;28;20048;-62
2021/07/10 16:33:44;;;;;;;7.75;4.13;;;;;;;22.93;58.03;101355.50;10543966;28;20043;-61
2021/07/10 16:38:46;;;;;;;8.65;4.72;;;;;;;22.86;55.36;101346.41;10543446;28;20044;-61
2021/07/10 16:43:48;;;;;;;5.30;4.28;;;;;;;22.56;57.26;101356.53;10543116;28;20389;-61
2021/07/10 16:48:51;;;;;;;4.30;3.90;;;;;;;22.71;57.51;101353.31;10542900;28;20041;-61
2021/07/10 16:53:54;;;;;;;4.03;3.72;;;;;;;22.79;57.70;101351.53;10543337;28;20040;-62
2021/07/10 16:58:56;;;;;;;3.58;3.25;;;;;;;22.80;57.27;101355.06;10542499;28;20403;-61
2021/07/10 17:03:58;;;;;;;4.85;3.38;;;;;;;22.78;56.08;101352.53;10542529;28;20044;-62
2021/07/10 17:09:00;;;;;;;4.22;3.20;;;;;;;22.82;58.00;101353.91;10542601;28;20044;-61
2021/07/10 17:14:03;;;;;;;4.07;3.13;;;;;;;22.87;58.05;101352.59;10542571;28;20048;-61
2021/07/10 17:19:05;;;;;;;3.63;3.28;;;;;;;22.94;59.43;101349.16;10541622;28;20479;-62
2021/07/10 17:24:10;;;;;;;6.50;3.50;;;;;;;22.99;59.37;101338.84;10540977;28;20065;-60
2021/07/10 17:29:12;;;;;;;5.55;3.53;;;;;;;22.81;60.14;101340.69;10541250;28;20040;-62
2021/07/10 17:34:15;;;;;;;3.67;3.38;;;;;;;22.76;60.96;101343.00;10541112;28;20476;-61
2021/07/10 17:39:18;;;;;;;4.68;3.80;;;;;;;22.57;59.21;101342.19;10540057;28;20051;-61
2021/07/10 17:44:21;;;;;;;4.43;3.40;;;;;;;22.75;60.49;101346.69;10540960;28;20054;-61
2021/07/10 17:49:23;;;;;;;7.15;4.32;;;;;;;22.80;59.35;101349.72;10540494;28;20483;-61
2021/07/10 17:54:25;;;;;;;4.07;3.70;;;;;;;22.72;59.37;101350.47;10540276;28;20055;-62
2021/07/10 17:59:28;;;;;;;3.85;3.55;;;;;;;22.55;61.81;101356.69;10540376;28;20044;-61
2021/07/10 18:04:30;;;;;;;5.43;4.05;;;;;;;22.17;60.87;101369.28;10540237;28;20052;-62
2021/07/10 18:09:33;;;;;;;6.07;3.92;;;;;;;21.94;60.66;101356.38;10540185;28;20566;-61
2021/07/10 18:14:35;;;;;;;5.63;3.92;;;;;;;21.82;62.85;101357.53;10539713;28;20093;-60
2021/07/10 18:19:38;;;;;;;4.32;3.92;;;;;;;21.98;62.94;101357.72;10538603;28;20051;-61
2021/07/10 18:24:40;;;;;;;4.30;3.97;;;;;;;21.44;64.80;101354.88;10539902;28;20114;-61
2021/07/10 18:29:42;;;;;;;4.18;3.40;;;;;;;21.18;65.54;101356.47;10539311;28;20056;-61
2021/07/10 18:34:45;;;;;;;4.30;4.00;;;;;;;20.86;67.54;101361.16;10539108;28;20044;-61
2021/07/10 18:39:47;;;;;;;5.60;3.78;;;;;;;20.82;67.98;101357.09;10538067;28;20048;-60
2021/07/10 18:44:49;;;;;;;5.50;3.95;;;;;;;20.60;67.73;101358.22;10539507;28;20048;-61
2021/07/10 18:49:52;;;;;;;4.15;3.85;;;;;;;20.32;68.54;101362.53;10538843;28;20059;-61
2021/07/10 18:54:54;;;;;;;4.47;4.05;;;;;;;20.28;69.44;101363.78;10539403;28;20051;-60
2021/07/10 18:59:56;;;;;;;5.68;4.07;;;;;;;20.10;70.87;101374.22;10539056;28;20040;-60
2021/07/10 19:04:59;;;;;;;5.82;3.70;;;;;;;20.06;68.95;101373.66;10538739;28;20051;-61
2021/07/10 19:10:01;;;;;;;4.13;3.55;;;;;;;20.16;68.28;101382.50;10537480;28;20044;-60
2021/07/10 19:15:08;;;;;;;4.60;4.10;;;;;;;19.81;69.78;101377.66;10538507;28;20048;-60
2021/07/10 19:20:12;;;;;;;4.30;3.90;;;;;;;19.59;70.48;101378.66;10536929;28;20060;-61
2021/07/10 19:25:17;;;;;;;4.88;3.88;;;;;;;19.58;68.55;101379.59;10538564;28;20063;-61
2021/07/10 19:30:24;;;;;;;4.47;3.78;;;;;;;19.54;70.99;101384.34;10536624;28;20052;-60
2021/07/10 19:35:28;;;;;;;6.07;3.88;;;;;;;19.62;70.30;101389.00;10538589;28;20048;-60
2021/07/10 19:40:32;;;;;;;5.68;4.25;;;;;;;19.64;70.80;101393.19;10537823;28;20499;-61
2021/07/10 19:45:34;;;;;;;4.78;4.28;;;;;;;19.76;69.65;101403.78;10540924;28;20459;-62
2021/07/10 19:50:38;;;;;;;7.00;4.05;;;;;;;19.41;69.82;101405.78;10545961;28;20071;-60
2021/07/10 19:55:40;;;;;;;5.47;4.97;;;;;;;18.87;70.86;101423.56;10545454;28;20054;-60
2021/07/10 20:00:42;;;;;;;7.63;5.53;;;;;;;19.24;70.23;101417.03;10544857;28;20064;-61
2021/07/10 20:05:45;;;;;;;8.77;7.78;;;;;;;19.23;68.97;101424.16;10544360;28;20055;-61
2021/07/10 20:10:47;;;;;;;7.30;6.18;;;;;;;19.43;68.83;101426.91;10544821;28;20040;-61
2021/07/10 20:15:50;;;;;;;9.63;6.43;;;;;;;18.55;72.08;101437.63;10544145;28;20050;-60
2021/07/10 20:20:52;;;;;;;6.93;6.28;;;;;;;18.90;71.24;101438.41;10544077;28;20071;-60
2021/07/10 20:25:55;;;;;;;10.27;8.88;;;;;;;18.50;72.88;101431.88;10542993;28;20048;-61
2021/07/10 20:30:58;;;;;;;10.77;7.55;;;;;;;18.20;74.36;101419.28;10543012;28;20044;-60
2021/07/10 20:36:03;;;;;;;7.75;7.05;;;;;;;18.81;71.77;101407.28;10542655;28;20052;-60
2021/07/10 20:41:06;;;;;;;9.73;8.65;;;;;;;18.44;73.19;101405.00;10542974;28;20400;-60
2021/07/10 20:46:09;;;;;;;9.23;7.47;;;;;;;18.39;74.06;101402.72;10542087;28;20457;-60
2021/07/10 20:51:11;;;;;;;8.73;7.53;;;;;;;18.11;75.62;101404.94;10541949;28;20044;-60
2021/07/10 20:56:15;;;;;;;7.45;6.80;;;;;;;17.97;76.22;101421.94;10540897;28;20487;-60
2021/07/10 21:01:18;;;;;;;19.08;6.50;;;;;;;17.97;76.33;101426.38;10540778;28;20066;-61
2021/07/10 21:06:22;;;;;;;8.18;5.95;;;;;;;18.06;75.62;101430.13;10540222;28;20047;-60
2021/07/10 21:11:24;;;;;;;8.32;7.05;;;;;;;17.70;77.27;101422.28;10540642;28;20044;-62
2021/07/10 21:16:27;;;;;;;6.32;5.72;;;;;;;17.65;78.15;101416.47;10541688;28;20047;-60
2021/07/10 21:21:30;;;;;;;7.47;6.32;;;;;;;17.70;77.59;101421.41;10541371;28;20747;-60
2021/07/10 21:26:36;;;;;;;7.32;6.45;;;;;;;17.64;77.84;101430.69;10541911;28;20142;-60
2021/07/10 21:31:39;;;;;;;6.88;6.05;;;;;;;17.59;78.02;101428.38;10541658;28;20044;-60
2021/07/10 21:36:41;;;;;;;6.05;5.38;;;;;;;17.68;76.90;101428.66;10541169;28;20584;-61
2021/07/10 21:41:44;;;;;;;5.97;5.38;;;;;;;17.70;77.50;101427.59;10541491;28;20040;-60
2021/07/10 21:46:50;;;;;;;7.88;7.07;;;;;;;17.46;79.10;101433.78;10541115;28;20048;-61
2021/07/10 21:51:52;;;;;;;9.00;6.30;;;;;;;17.80;76.30;101436.50;10541885;28;20126;-60
2021/07/10 21:56:55;;;;;;;7.57;6.05;;;;;;;17.48;79.04;101441.59;10540634;28;20426;-61
2021/07/10 22:01:57;;;;;;;8.18;7.18;;;;;;;17.46;78.50;101440.88;10540851;28;20229;-60
2021/07/10 22:07:00;;;;;;;8.52;6.70;;;;;;;17.46;78.89;101438.22;10540451;28;20051;-60
2021/07/10 22:12:03;;;;;;;8.38;6.35;;;;;;;17.26;79.80;101440.59;10540449;28;20044;-60
2021/07/10 22:17:05;;;;;;;13.02;7.95;;;;;;;17.35;79.67;101439.06;10539798;28;20052;-59
2021/07/10 22:22:07;;;;;;;8.35;6.88;;;;;;;17.37;79.71;101438.94;10540204;28;20050;-61
2021/07/10 22:27:10;;;;;;;9.65;6.80;;;;;;;17.37;80.03;101437.13;10538492;28;20542;-60
2021/07/10 22:32:12;;;;;;;10.65;7.00;;;;;;;17.52;79.17;101436.94;10538505;28;20040;-60
2021/07/10 22:37:14;;;;;;;9.70;7.22;;;;;;;17.96;76.65;101430.03;10539473;28;20067;-60
2021/07/10 22:42:17;;;;;;;11.30;7.72;;;;;;;17.59;79.05;101428.38;10539836;28;20048;-59
2021/07/10 22:47:19;;;;;;;10.00;7.60;;;;;;;17.63;79.23;101431.63;10539233;28;20044;-61
2021/07/10 22:52:21;;;;;;;9.05;8.15;;;;;;;17.55;79.52;101429.59;10539346;28;20051;-60
2021/07/10 22:57:24;;;;;;;7.40;6.68;;;;;;;17.65;78.59;101424.41;10539123;28;20135;-60
2021/07/10 23:02:26;;;;;;;12.38;8.35;;;;;;;17.90;77.40;101426.03;10539212;28;20044;-60